RORY(METAR)
04/26 16:00
METAR RORY 260700Z AUTO 34013KT 9999 FEW018 24/19 Q1012 RMK A2989=
戻る
トップページへ戻る
IMOC Co,.Ltd.